createdAt,value
2023-05-08T00:01:59.449Z,13.23
2023-05-08T00:04:27.925Z,13.23
2023-05-08T00:06:56.411Z,13.19
2023-05-08T00:09:39.015Z,13.15
2023-05-08T00:12:07.847Z,13.10
2023-05-08T00:14:37.522Z,13.07
2023-05-08T00:17:05.981Z,13.02
2023-05-08T00:19:34.440Z,12.99
2023-05-08T00:22:02.809Z,13.06
2023-05-08T00:24:31.486Z,13.00
2023-05-08T00:26:59.879Z,12.96
2023-05-08T00:29:28.304Z,12.99
2023-05-08T00:31:58.115Z,12.98
2023-05-08T00:34:40.956Z,12.92
2023-05-08T00:37:09.534Z,12.88
2023-05-08T00:39:37.810Z,12.87
2023-05-08T00:42:07.611Z,12.92
2023-05-08T00:44:36.146Z,13.03
2023-05-08T00:47:05.966Z,12.96
2023-05-08T00:49:35.702Z,12.93
2023-05-08T00:52:05.865Z,13.02
2023-05-08T00:54:34.440Z,12.96
2023-05-08T00:57:03.901Z,12.91
2023-05-08T00:59:32.365Z,12.87
2023-05-08T01:02:01.676Z,12.79
2023-05-08T01:04:31.790Z,12.78
2023-05-08T01:07:00.392Z,12.71
2023-05-08T01:09:29.048Z,12.76
2023-05-08T01:12:04.265Z,12.77
2023-05-08T01:14:35.682Z,12.76
2023-05-08T01:17:11.052Z,12.76
2023-05-08T01:19:56.347Z,12.82
2023-05-08T01:22:40.158Z,12.81
2023-05-08T01:25:26.567Z,12.70
2023-05-08T01:28:12.918Z,12.61
2023-05-08T01:30:55.213Z,12.60
2023-05-08T01:33:28.245Z,12.54
2023-05-08T01:35:59.921Z,12.48
2023-05-08T01:38:34.032Z,12.45
2023-05-08T01:41:10.282Z,12.42
2023-05-08T01:43:45.645Z,12.36
2023-05-08T01:46:15.953Z,12.32
2023-05-08T01:48:48.235Z,12.30
2023-05-08T01:51:19.221Z,12.34
2023-05-08T01:53:49.985Z,12.32
2023-05-08T01:58:52.746Z,12.21
2023-05-08T02:01:23.615Z,12.16
2023-05-08T02:03:54.674Z,12.09
2023-05-08T02:06:23.742Z,12.04
2023-05-08T02:08:52.959Z,12.02
2023-05-08T02:11:22.723Z,12.00
2023-05-08T02:13:51.823Z,11.94
2023-05-08T02:16:21.725Z,11.88
2023-05-08T02:18:52.043Z,11.88
2023-05-08T02:21:23.033Z,11.80
2023-05-08T02:23:52.915Z,11.78
2023-05-08T02:26:36.414Z,11.71
2023-05-08T02:29:04.920Z,11.67
2023-05-08T02:31:33.304Z,11.63
2023-05-08T02:34:02.394Z,11.73
2023-05-08T02:36:33.192Z,11.84
2023-05-08T02:39:02.588Z,11.68
2023-05-08T02:41:33.414Z,11.62
2023-05-08T02:44:02.351Z,11.61
2023-05-08T02:46:36.863Z,11.55
2023-05-08T02:49:08.413Z,11.50
2023-05-08T02:51:44.893Z,11.51
2023-05-08T02:54:17.403Z,11.47
2023-05-08T02:56:51.107Z,11.44
2023-05-08T02:59:21.645Z,11.43
2023-05-08T03:01:51.792Z,11.42
2023-05-08T03:04:24.221Z,11.48
2023-05-08T03:06:54.978Z,11.48
2023-05-08T03:09:26.281Z,11.46
2023-05-08T03:11:56.463Z,11.45
2023-05-08T03:14:27.687Z,11.38
2023-05-08T03:16:56.453Z,11.36
2023-05-08T03:19:28.408Z,11.35
2023-05-08T03:21:59.143Z,11.33
2023-05-08T03:24:29.187Z,11.31
2023-05-08T03:26:58.053Z,11.37
2023-05-08T03:29:26.869Z,11.39
2023-05-08T03:31:55.290Z,11.39
2023-05-08T03:34:24.547Z,11.36
2023-05-08T03:36:53.161Z,11.34
2023-05-08T03:39:22.999Z,11.37
2023-05-08T03:41:52.071Z,11.31
2023-05-08T03:44:21.060Z,11.22
2023-05-08T03:46:51.071Z,11.05
2023-05-08T03:49:19.712Z,11.04
2023-05-08T03:51:48.601Z,10.98
2023-05-08T03:54:17.080Z,10.91
2023-05-08T03:56:48.077Z,10.89
2023-05-08T03:59:18.496Z,10.95
2023-05-08T04:01:51.572Z,11.04
2023-05-08T04:04:24.268Z,10.98
2023-05-08T04:06:58.129Z,10.98
2023-05-08T04:09:29.512Z,10.93
2023-05-08T04:12:02.020Z,10.84
2023-05-08T04:14:32.793Z,10.72
2023-05-08T04:17:04.776Z,10.66
2023-05-08T04:19:34.706Z,10.77
2023-05-08T04:22:07.106Z,10.84
2023-05-08T04:24:37.808Z,10.89
2023-05-08T04:27:08.438Z,10.89
2023-05-08T04:29:39.618Z,10.92
2023-05-08T04:32:08.990Z,10.90
2023-05-08T04:34:37.625Z,10.83
2023-05-08T04:37:07.327Z,10.86
2023-05-08T04:39:38.778Z,10.87
2023-05-08T04:42:08.530Z,10.91
2023-05-08T04:44:36.851Z,10.99
2023-05-08T04:47:05.199Z,11.08
2023-05-08T04:49:35.526Z,11.20
2023-05-08T04:52:06.628Z,11.31
2023-05-08T04:54:38.611Z,11.46
2023-05-08T04:57:08.543Z,11.61
2023-05-08T04:59:36.835Z,11.75
2023-05-08T05:02:09.218Z,11.91
2023-05-08T05:04:37.731Z,12.01
2023-05-08T05:07:06.270Z,12.16
2023-05-08T05:09:38.628Z,12.32
2023-05-08T05:12:08.568Z,12.48
2023-05-08T05:14:36.847Z,12.58
2023-05-08T05:17:05.165Z,12.70
2023-05-08T05:19:33.627Z,12.71
2023-05-08T05:22:02.934Z,12.77
2023-05-08T05:24:35.885Z,12.81
2023-05-08T05:27:04.568Z,12.82
2023-05-08T05:29:34.488Z,12.90
2023-05-08T05:32:07.220Z,13.10
2023-05-08T05:34:35.577Z,13.38
2023-05-08T05:37:04.969Z,13.58
2023-05-08T05:39:33.369Z,13.77
2023-05-08T05:42:01.925Z,13.78
2023-05-08T05:44:30.363Z,13.76
2023-05-08T05:47:00.317Z,13.81
2023-05-08T05:49:28.677Z,13.82
2023-05-08T05:51:57.141Z,13.63
2023-05-08T05:54:26.345Z,13.40
2023-05-08T05:56:56.692Z,13.57
2023-05-08T05:59:27.225Z,13.89
2023-05-08T06:01:56.057Z,14.14
2023-05-08T06:04:26.877Z,14.24
2023-05-08T06:06:57.799Z,14.49
2023-05-08T06:09:26.610Z,14.62
2023-05-08T06:11:55.489Z,14.65
2023-05-08T06:14:26.097Z,14.53
2023-05-08T06:16:57.048Z,14.33
2023-05-08T06:19:28.522Z,14.22
2023-05-08T06:21:57.154Z,14.10
2023-05-08T06:24:25.771Z,14.02
2023-05-08T06:26:54.331Z,14.02
2023-05-08T06:29:22.933Z,14.11
2023-05-08T06:31:52.949Z,14.09
2023-05-08T06:34:21.473Z,14.20
2023-05-08T06:36:51.249Z,14.42
2023-05-08T06:39:20.150Z,14.71
2023-05-08T06:41:50.085Z,15.08
2023-05-08T06:44:21.034Z,15.43
2023-05-08T06:46:49.609Z,15.65
2023-05-08T06:49:21.020Z,15.41
2023-05-08T06:51:50.998Z,15.59
2023-05-08T06:54:20.890Z,15.70
2023-05-08T06:56:49.335Z,15.96
2023-05-08T06:59:17.892Z,16.38
2023-05-08T07:01:46.264Z,17.54
2023-05-08T07:04:15.052Z,17.55
2023-05-08T07:06:43.419Z,18.15
2023-05-08T07:09:13.198Z,18.45
2023-05-08T07:11:44.002Z,18.27
2023-05-08T07:14:12.488Z,18.29
2023-05-08T07:16:40.946Z,17.45
2023-05-08T07:19:09.318Z,17.28
2023-05-08T07:21:38.658Z,17.33
2023-05-08T07:24:07.632Z,17.44
2023-05-08T07:26:37.446Z,18.05
2023-05-08T07:29:06.066Z,18.26
2023-05-08T07:31:34.911Z,18.64
2023-05-08T07:34:03.417Z,18.82
2023-05-08T07:36:31.735Z,18.89
2023-05-08T07:39:00.457Z,19.16
2023-05-08T07:41:28.815Z,19.44
2023-05-08T07:43:58.563Z,19.61
2023-05-08T07:46:26.891Z,20.01
2023-05-08T07:48:55.619Z,20.47
2023-05-08T07:51:24.090Z,20.85
2023-05-08T07:53:52.849Z,21.08
2023-05-08T07:56:21.896Z,21.73
2023-05-08T07:58:50.368Z,23.08
2023-05-08T08:01:20.638Z,24.30
2023-05-08T08:03:49.296Z,24.02
2023-05-08T08:06:18.678Z,23.65
2023-05-08T08:08:46.967Z,23.89
2023-05-08T08:11:15.405Z,23.76
2023-05-08T08:13:43.784Z,24.03
2023-05-08T08:16:13.328Z,24.10
2023-05-08T08:18:43.170Z,24.43
2023-05-08T08:21:11.638Z,24.96
2023-05-08T08:23:40.359Z,24.73
2023-05-08T08:26:08.925Z,24.90
2023-05-08T08:28:39.790Z,24.87
2023-05-08T08:31:08.320Z,24.92
2023-05-08T08:33:36.919Z,25.28
2023-05-08T08:36:15.198Z,25.56
2023-05-08T08:38:43.980Z,25.34
2023-05-08T08:41:15.227Z,25.40
2023-05-08T08:43:44.186Z,25.24
2023-05-08T08:46:14.864Z,24.65
2023-05-08T08:48:44.873Z,24.61
2023-05-08T08:51:18.038Z,24.49
2023-05-08T08:53:48.557Z,23.95
2023-05-08T08:56:17.673Z,24.13
2023-05-08T08:58:50.970Z,24.20
2023-05-08T09:01:20.420Z,23.81
2023-05-08T09:03:50.153Z,23.63
2023-05-08T09:06:20.339Z,22.81
2023-05-08T09:08:48.909Z,22.75
2023-05-08T09:11:17.299Z,22.96
2023-05-08T09:13:45.763Z,23.40
2023-05-08T09:16:14.464Z,23.28
2023-05-08T09:18:42.781Z,22.79
2023-05-08T09:21:11.409Z,22.41
2023-05-08T09:23:55.497Z,21.88
2023-05-08T09:26:32.491Z,21.50
2023-05-08T09:29:12.617Z,21.45
2023-05-08T09:31:42.226Z,21.04
2023-05-08T09:34:11.496Z,20.95
2023-05-08T09:36:42.020Z,20.94
2023-05-08T09:39:13.689Z,20.82
2023-05-08T09:41:57.573Z,20.41
2023-05-08T09:44:26.517Z,20.18
2023-05-08T09:47:10.892Z,20.18
2023-05-08T09:49:40.245Z,20.27
2023-05-08T09:52:08.945Z,20.15
2023-05-08T09:54:44.200Z,20.27
2023-05-08T09:57:14.122Z,20.04
2023-05-08T09:59:42.544Z,19.77
2023-05-08T10:02:12.184Z,19.62
2023-05-08T10:04:42.809Z,19.24
2023-05-08T10:07:11.754Z,19.21
2023-05-08T10:09:50.404Z,19.15
2023-05-08T10:12:22.438Z,19.21
2023-05-08T10:14:51.914Z,19.24
2023-05-08T10:17:29.237Z,19.48
2023-05-08T10:20:02.059Z,19.43
2023-05-08T10:22:34.465Z,19.60
2023-05-08T10:25:05.368Z,19.69
2023-05-08T10:27:40.607Z,20.05
2023-05-08T10:30:11.200Z,20.50
2023-05-08T10:32:41.728Z,20.59
2023-05-08T10:35:11.766Z,20.56
2023-05-08T10:37:42.528Z,21.18
2023-05-08T10:40:12.509Z,21.64
2023-05-08T10:42:43.670Z,21.87
2023-05-08T10:45:12.652Z,21.58
2023-05-08T10:47:52.775Z,21.80
2023-05-08T10:50:32.109Z,22.21
2023-05-08T10:53:03.824Z,22.23
2023-05-08T10:55:33.831Z,21.90
2023-05-08T10:58:20.288Z,21.96
2023-05-08T11:01:08.226Z,22.36
2023-05-08T11:03:42.898Z,22.92
2023-05-08T11:06:11.678Z,23.13
2023-05-08T11:08:50.902Z,23.15
2023-05-08T11:11:27.028Z,23.62
2023-05-08T11:14:00.149Z,23.74
2023-05-08T11:16:47.851Z,23.95
2023-05-08T11:19:18.366Z,23.53
2023-05-08T11:22:01.699Z,22.59
2023-05-08T11:24:36.980Z,22.52
2023-05-08T11:27:05.960Z,22.39
2023-05-08T11:29:36.124Z,21.79
2023-05-08T11:32:04.843Z,21.79
2023-05-08T11:34:50.194Z,21.80
2023-05-08T11:37:20.444Z,21.73
2023-05-08T11:39:49.052Z,21.69
2023-05-08T11:42:37.034Z,22.16
2023-05-08T11:45:09.192Z,21.76
2023-05-08T11:47:39.173Z,22.60
2023-05-08T11:50:10.919Z,22.63
2023-05-08T11:52:40.054Z,22.85
2023-05-08T11:55:09.906Z,22.81
2023-05-08T11:57:41.393Z,22.81
2023-05-08T12:00:11.414Z,23.68
2023-05-08T12:02:44.226Z,24.27
2023-05-08T12:05:14.463Z,23.85
2023-05-08T12:07:44.422Z,23.97
2023-05-08T12:10:16.152Z,24.11
2023-05-08T12:12:47.053Z,24.19
2023-05-08T12:15:16.280Z,22.76
2023-05-08T12:17:44.840Z,23.27
2023-05-08T12:20:17.226Z,22.34
2023-05-08T12:22:52.040Z,22.05
2023-05-08T12:25:22.147Z,22.02
2023-05-08T12:27:51.588Z,22.27
2023-05-08T12:30:20.332Z,21.87
2023-05-08T12:33:04.685Z,21.68
2023-05-08T12:35:38.261Z,21.94
2023-05-08T12:38:07.505Z,22.28
2023-05-08T12:40:36.866Z,22.54
2023-05-08T12:43:05.566Z,22.26
2023-05-08T12:45:34.703Z,22.46
2023-05-08T12:48:03.867Z,21.96
2023-05-08T12:50:35.624Z,21.30
2023-05-08T12:53:07.528Z,21.29
2023-05-08T12:55:38.096Z,21.59
2023-05-08T12:58:07.257Z,21.77
2023-05-08T13:00:37.231Z,21.61
2023-05-08T13:03:06.247Z,21.64
2023-05-08T13:05:35.720Z,21.47
2023-05-08T13:08:05.666Z,20.81
2023-05-08T13:10:51.870Z,21.15
2023-05-08T13:13:22.322Z,21.46
2023-05-08T13:15:51.864Z,21.52
2023-05-08T13:18:21.276Z,21.89
2023-05-08T13:20:49.576Z,21.73
2023-05-08T13:23:18.070Z,21.62
2023-05-08T13:25:46.378Z,21.89
2023-05-08T13:28:16.413Z,22.21
2023-05-08T13:30:44.776Z,22.65
2023-05-08T13:33:13.457Z,23.13
2023-05-08T13:35:43.768Z,23.45
2023-05-08T13:38:12.603Z,22.68
2023-05-08T13:40:41.314Z,22.98
2023-05-08T13:43:09.994Z,23.18
2023-05-08T13:45:39.778Z,23.27
2023-05-08T13:48:10.717Z,23.17
2023-05-08T13:50:39.415Z,22.68
2023-05-08T13:53:08.686Z,22.10
2023-05-08T13:55:37.444Z,22.20
2023-05-08T13:58:07.016Z,21.71
2023-05-08T14:00:35.905Z,21.60
2023-05-08T14:03:06.863Z,21.37
2023-05-08T14:05:35.943Z,21.39
2023-05-08T14:08:04.618Z,21.48
2023-05-08T14:10:32.944Z,21.25
2023-05-08T14:13:02.797Z,21.71
2023-05-08T14:15:37.022Z,21.74
2023-05-08T14:18:07.716Z,22.21
2023-05-08T14:20:36.313Z,21.74
2023-05-08T14:23:05.264Z,21.90
2023-05-08T14:25:33.821Z,21.78
2023-05-08T14:28:02.183Z,22.49
2023-05-08T14:30:32.586Z,22.51
2023-05-08T14:33:01.790Z,22.13
2023-05-08T14:35:31.825Z,22.02
2023-05-08T14:38:00.628Z,22.48
2023-05-08T14:40:29.020Z,22.82
2023-05-08T14:42:57.672Z,23.48
2023-05-08T14:45:26.003Z,23.62
2023-05-08T14:47:54.336Z,24.01
2023-05-08T14:50:24.280Z,23.70
2023-05-08T14:52:55.318Z,23.77
2023-05-08T14:55:24.016Z,22.73
2023-05-08T14:57:52.478Z,23.03
2023-05-08T15:00:22.035Z,23.45
2023-05-08T15:02:50.706Z,22.82
2023-05-08T15:05:20.486Z,23.28
2023-05-08T15:07:50.103Z,23.58
2023-05-08T15:10:19.845Z,22.29
2023-05-08T15:12:48.283Z,21.63
2023-05-08T15:15:17.496Z,21.62
2023-05-08T15:17:46.436Z,22.06
2023-05-08T15:20:15.094Z,22.13
2023-05-08T15:22:43.707Z,22.55
2023-05-08T15:25:12.898Z,22.10
2023-05-08T15:27:45.315Z,22.03
2023-05-08T15:30:14.757Z,21.77
2023-05-08T15:32:46.108Z,21.35
2023-05-08T15:35:15.322Z,21.41
2023-05-08T15:37:43.980Z,21.44
2023-05-08T15:40:13.435Z,21.43
2023-05-08T15:42:44.130Z,21.17
2023-05-08T15:45:12.870Z,21.25
2023-05-08T15:47:41.392Z,21.61
2023-05-08T15:50:10.001Z,21.31
2023-05-08T15:52:38.628Z,21.11
2023-05-08T15:55:07.297Z,20.81
2023-05-08T15:57:35.667Z,20.48
2023-05-08T16:00:05.857Z,20.33
2023-05-08T16:02:34.284Z,20.45
2023-05-08T16:05:02.794Z,20.47
2023-05-08T16:07:31.123Z,20.48
2023-05-08T16:09:59.851Z,20.63
2023-05-08T16:12:28.346Z,20.64
2023-05-08T16:14:56.909Z,20.72
2023-05-08T16:17:26.661Z,20.79
2023-05-08T16:19:55.152Z,20.77
2023-05-08T16:22:23.724Z,20.59
2023-05-08T16:24:53.851Z,21.03
2023-05-08T16:27:22.257Z,20.89
2023-05-08T16:29:50.623Z,20.95
2023-05-08T16:32:19.071Z,20.68
2023-05-08T16:34:48.805Z,20.75
2023-05-08T16:37:17.101Z,20.76
2023-05-08T16:39:45.661Z,20.72
2023-05-08T16:42:14.005Z,20.46
2023-05-08T16:44:42.367Z,20.58
2023-05-08T16:47:10.860Z,20.10
2023-05-08T16:49:40.494Z,20.13
2023-05-08T16:52:10.349Z,20.09
2023-05-08T16:54:38.699Z,20.15
2023-05-08T16:57:06.993Z,20.12
2023-05-08T16:59:35.388Z,19.86
2023-05-08T17:02:03.864Z,19.72
2023-05-08T17:04:32.286Z,19.68
2023-05-08T17:07:00.964Z,19.62
2023-05-08T17:09:30.757Z,19.44
2023-05-08T17:11:59.246Z,19.47
2023-05-08T17:14:27.641Z,19.48
2023-05-08T17:16:56.221Z,19.48
2023-05-08T17:19:24.517Z,19.33
2023-05-08T17:21:52.979Z,19.24
2023-05-08T17:24:21.407Z,19.13
2023-05-08T17:26:51.667Z,19.13
2023-05-08T17:29:20.122Z,19.11
2023-05-08T17:31:48.551Z,19.11
2023-05-08T17:34:17.282Z,19.10
2023-05-08T17:36:45.753Z,19.02
2023-05-08T17:39:14.237Z,18.97
2023-05-08T17:41:42.814Z,18.96
2023-05-08T17:44:12.439Z,18.95
2023-05-08T17:46:40.733Z,18.96
2023-05-08T17:49:09.154Z,18.90
2023-05-08T17:51:37.514Z,18.88
2023-05-08T17:54:06.754Z,19.03
2023-05-08T17:56:35.215Z,18.97
2023-05-08T17:59:03.583Z,19.01
2023-05-08T18:01:33.370Z,18.96
2023-05-08T18:04:01.743Z,19.05
2023-05-08T18:06:30.312Z,19.10
2023-05-08T18:08:58.626Z,19.15
2023-05-08T18:11:27.309Z,19.13
2023-05-08T18:13:55.801Z,19.02
2023-05-08T18:16:24.314Z,18.98
2023-05-08T18:18:54.387Z,18.97
2023-05-08T18:21:23.076Z,18.84
2023-05-08T18:23:51.776Z,18.83
2023-05-08T18:26:21.564Z,18.80
2023-05-08T18:28:51.952Z,18.73
2023-05-08T18:31:20.851Z,18.60
2023-05-08T18:33:49.681Z,18.54
2023-05-08T18:36:19.309Z,18.42
2023-05-08T18:38:47.734Z,18.33
2023-05-08T18:41:16.275Z,18.28
2023-05-08T18:43:44.754Z,18.25
2023-05-08T18:46:13.557Z,18.25
2023-05-08T18:48:42.004Z,18.26
2023-05-08T18:51:10.575Z,18.18
2023-05-08T18:53:40.822Z,18.11
2023-05-08T18:56:10.320Z,18.08
2023-05-08T18:58:38.918Z,18.01
2023-05-08T19:01:07.401Z,17.98
2023-05-08T19:03:36.683Z,17.94
2023-05-08T19:06:06.663Z,17.89
2023-05-08T19:08:35.893Z,17.89
2023-05-08T19:11:05.859Z,17.88
2023-05-08T19:13:34.816Z,17.82
2023-05-08T19:16:04.357Z,17.79
2023-05-08T19:18:33.556Z,17.75
2023-05-08T19:21:02.284Z,17.68
2023-05-08T19:23:31.329Z,17.61
2023-05-08T19:26:00.563Z,17.64
2023-05-08T19:28:30.669Z,17.59
2023-05-08T19:30:59.572Z,17.59
2023-05-08T19:33:28.174Z,17.58
2023-05-08T19:35:56.490Z,17.65
2023-05-08T19:38:24.868Z,17.54
2023-05-08T19:40:57.332Z,17.58
2023-05-08T19:43:26.864Z,17.46
2023-05-08T19:45:57.293Z,17.35
2023-05-08T19:48:26.028Z,17.23
2023-05-08T19:50:55.366Z,17.12
2023-05-08T19:53:24.233Z,17.05
2023-05-08T19:55:52.954Z,16.94
2023-05-08T19:58:21.482Z,16.84
2023-05-08T20:00:51.676Z,16.76
2023-05-08T20:03:21.744Z,16.67
2023-05-08T20:05:51.805Z,16.58
2023-05-08T20:08:20.810Z,16.50
2023-05-08T20:10:49.852Z,16.44
2023-05-08T20:13:18.446Z,16.40
2023-05-08T20:15:47.141Z,16.36
2023-05-08T20:18:15.609Z,16.31
2023-05-08T20:20:46.060Z,16.28
2023-05-08T20:23:14.352Z,16.22
2023-05-08T20:25:46.664Z,16.22
2023-05-08T20:28:15.074Z,16.17
2023-05-08T20:30:43.701Z,16.21
2023-05-08T20:33:12.258Z,16.30
2023-05-08T20:35:40.647Z,16.27
2023-05-08T20:38:10.574Z,16.46
2023-05-08T20:40:39.086Z,16.41
2023-05-08T20:43:07.528Z,16.39
2023-05-08T20:45:35.924Z,16.36
2023-05-08T20:48:05.102Z,16.34
2023-05-08T20:50:33.525Z,16.27
2023-05-08T20:53:01.846Z,16.22
2023-05-08T20:55:31.745Z,16.21
2023-05-08T20:58:00.582Z,16.23
2023-05-08T21:00:29.176Z,16.27
2023-05-08T21:02:57.680Z,16.29
2023-05-08T21:05:26.153Z,16.22
2023-05-08T21:07:58.456Z,16.28
2023-05-08T21:10:31.601Z,16.23
2023-05-08T21:13:00.259Z,16.17
2023-05-08T21:15:28.588Z,16.12
2023-05-08T21:17:57.827Z,16.08
2023-05-08T21:20:26.397Z,16.00
2023-05-08T21:22:56.309Z,15.98
2023-05-08T21:25:40.511Z,15.93
2023-05-08T21:28:10.798Z,16.07
2023-05-08T21:30:39.179Z,16.05
2023-05-08T21:33:07.929Z,16.14
2023-05-08T21:35:39.201Z,16.22
2023-05-08T21:38:07.667Z,16.16
2023-05-08T21:40:36.208Z,16.19
2023-05-08T21:43:07.394Z,16.12
2023-05-08T21:45:37.915Z,16.13
2023-05-08T21:48:09.523Z,16.05
2023-05-08T21:50:40.512Z,15.97
2023-05-08T21:53:08.866Z,16.05
2023-05-08T21:55:37.309Z,16.03
2023-05-08T21:58:06.011Z,15.95
2023-05-08T22:00:34.387Z,15.86
2023-05-08T22:03:06.894Z,15.83
2023-05-08T22:05:37.339Z,15.73
2023-05-08T22:08:08.732Z,15.73
2023-05-08T22:10:37.285Z,15.90
2023-05-08T22:13:09.623Z,15.80
2023-05-08T22:15:38.230Z,15.71
2023-05-08T22:18:08.037Z,15.64
2023-05-08T22:20:36.366Z,15.72
2023-05-08T22:23:06.836Z,15.60
2023-05-08T22:25:35.333Z,15.54
2023-05-08T22:28:03.808Z,15.46
2023-05-08T22:30:32.144Z,15.49
2023-05-08T22:33:00.627Z,15.35
2023-05-08T22:35:30.274Z,15.33
2023-05-08T22:37:58.633Z,15.21
2023-05-08T22:40:29.677Z,15.15
2023-05-08T22:42:58.832Z,15.09
2023-05-08T22:45:28.063Z,15.02
2023-05-08T22:47:59.007Z,14.97
2023-05-08T22:50:27.691Z,14.89
2023-05-08T22:52:57.621Z,14.86
2023-05-08T22:55:26.062Z,14.84
2023-05-08T22:57:57.312Z,14.86
2023-05-08T23:00:25.850Z,14.83
2023-05-08T23:02:54.435Z,14.86
2023-05-08T23:05:25.485Z,14.79
2023-05-08T23:07:53.777Z,14.83
2023-05-08T23:10:26.577Z,14.79
2023-05-08T23:12:58.086Z,14.70
2023-05-08T23:15:29.305Z,14.75
2023-05-08T23:17:57.698Z,14.75
2023-05-08T23:20:26.355Z,14.72
2023-05-08T23:22:57.686Z,14.69
2023-05-08T23:25:27.763Z,14.67
2023-05-08T23:27:56.539Z,14.75
2023-05-08T23:30:24.962Z,14.78
2023-05-08T23:32:53.866Z,14.81
2023-05-08T23:35:22.372Z,14.81
2023-05-08T23:37:50.814Z,14.79
2023-05-08T23:40:22.233Z,14.76
2023-05-08T23:42:55.107Z,14.76
2023-05-08T23:45:23.678Z,14.68
2023-05-08T23:47:52.077Z,14.65
2023-05-08T23:50:20.458Z,14.59
2023-05-08T23:52:49.145Z,14.51
2023-05-08T23:55:17.500Z,14.47
2023-05-08T23:57:45.898Z,14.38
